sensor_id;sensor_type;location;lat;lon;timestamp;temperature;humidity
15959;DHT22;8078;47.822;9.402;2023-06-26T00:00:39;20.70;1.00
15959;DHT22;8078;47.822;9.402;2023-06-26T00:03:05;20.70;1.00
15959;DHT22;8078;47.822;9.402;2023-06-26T00:05:31;20.60;1.00
15959;DHT22;8078;47.822;9.402;2023-06-26T00:07:56;20.60;1.00
15959;DHT22;8078;47.822;9.402;2023-06-26T00:10:28;20.50;1.00
15959;DHT22;8078;47.822;9.402;2023-06-26T00:12:54;20.40;1.00
15959;DHT22;8078;47.822;9.402;2023-06-26T00:15:19;20.40;1.00
15959;DHT22;8078;47.822;9.402;2023-06-26T00:17:45;20.30;1.00
15959;DHT22;8078;47.822;9.402;2023-06-26T00:20:11;20.50;1.00
15959;DHT22;8078;47.822;9.402;2023-06-26T00:22:36;20.70;1.00
15959;DHT22;8078;47.822;9.402;2023-06-26T00:25:06;20.80;1.00
15959;DHT22;8078;47.822;9.402;2023-06-26T00:27:32;20.80;1.00
15959;DHT22;8078;47.822;9.402;2023-06-26T00:29:57;20.80;1.00
15959;DHT22;8078;47.822;9.402;2023-06-26T00:32:23;21.00;1.00
15959;DHT22;8078;47.822;9.402;2023-06-26T00:34:48;21.00;1.00
15959;DHT22;8078;47.822;9.402;2023-06-26T00:37:14;20.90;1.00
15959;DHT22;8078;47.822;9.402;2023-06-26T00:39:39;21.00;1.00
15959;DHT22;8078;47.822;9.402;2023-06-26T00:42:06;21.00;1.00
15959;DHT22;8078;47.822;9.402;2023-06-26T00:44:31;21.00;1.00
15959;DHT22;8078;47.822;9.402;2023-06-26T00:46:57;21.00;1.00
15959;DHT22;8078;47.822;9.402;2023-06-26T00:49:23;20.80;1.00
15959;DHT22;8078;47.822;9.402;2023-06-26T00:51:49;20.80;1.00
15959;DHT22;8078;47.822;9.402;2023-06-26T00:54:15;20.80;1.00
15959;DHT22;8078;47.822;9.402;2023-06-26T00:56:46;20.70;1.00
15959;DHT22;8078;47.822;9.402;2023-06-26T00:59:12;20.60;1.00
15959;DHT22;8078;47.822;9.402;2023-06-26T01:01:37;20.60;1.00
15959;DHT22;8078;47.822;9.402;2023-06-26T01:04:03;20.50;1.00
15959;DHT22;8078;47.822;9.402;2023-06-26T01:06:29;20.40;1.00
15959;DHT22;8078;47.822;9.402;2023-06-26T01:08:58;20.30;1.00
15959;DHT22;8078;47.822;9.402;2023-06-26T01:11:23;20.40;1.00
15959;DHT22;8078;47.822;9.402;2023-06-26T01:13:49;20.40;1.00
15959;DHT22;8078;47.822;9.402;2023-06-26T01:16:16;20.40;1.00
15959;DHT22;8078;47.822;9.402;2023-06-26T01:18:44;20.40;1.00
15959;DHT22;8078;47.822;9.402;2023-06-26T01:21:11;20.30;1.00
15959;DHT22;8078;47.822;9.402;2023-06-26T01:26:31;20.10;1.00
15959;DHT22;8078;47.822;9.402;2023-06-26T01:29:02;20.10;1.00
15959;DHT22;8078;47.822;9.402;2023-06-26T01:31:29;20.00;1.00
15959;DHT22;8078;47.822;9.402;2023-06-26T01:33:59;20.10;1.00
15959;DHT22;8078;47.822;9.402;2023-06-26T01:36:26;20.20;1.00
15959;DHT22;8078;47.822;9.402;2023-06-26T01:38:52;20.10;1.00
15959;DHT22;8078;47.822;9.402;2023-06-26T01:41:19;20.10;1.00
15959;DHT22;8078;47.822;9.402;2023-06-26T01:46:39;20.10;1.00
15959;DHT22;8078;47.822;9.402;2023-06-26T01:55:05;20.20;1.00
15959;DHT22;8078;47.822;9.402;2023-06-26T01:57:35;20.20;1.00
15959;DHT22;8078;47.822;9.402;2023-06-26T02:00:02;20.10;1.00
15959;DHT22;8078;47.822;9.402;2023-06-26T02:02:31;20.00;1.00
15959;DHT22;8078;47.822;9.402;2023-06-26T02:04:56;20.00;1.00
15959;DHT22;8078;47.822;9.402;2023-06-26T02:07:22;20.00;1.00
15959;DHT22;8078;47.822;9.402;2023-06-26T02:09:47;20.00;1.00
15959;DHT22;8078;47.822;9.402;2023-06-26T02:12:13;19.90;1.00
15959;DHT22;8078;47.822;9.402;2023-06-26T02:14:39;19.90;1.00
15959;DHT22;8078;47.822;9.402;2023-06-26T02:17:04;19.80;1.00
15959;DHT22;8078;47.822;9.402;2023-06-26T02:19:30;19.70;1.00
15959;DHT22;8078;47.822;9.402;2023-06-26T02:21:55;19.60;1.00
15959;DHT22;8078;47.822;9.402;2023-06-26T02:24:21;19.70;1.00
15959;DHT22;8078;47.822;9.402;2023-06-26T02:26:47;19.70;1.00
15959;DHT22;8078;47.822;9.402;2023-06-26T02:29:14;19.60;1.00
15959;DHT22;8078;47.822;9.402;2023-06-26T02:31:40;19.60;1.00
15959;DHT22;8078;47.822;9.402;2023-06-26T02:34:07;19.50;1.00
15959;DHT22;8078;47.822;9.402;2023-06-26T02:36:32;19.40;1.00
15959;DHT22;8078;47.822;9.402;2023-06-26T02:38:58;19.50;1.00
15959;DHT22;8078;47.822;9.402;2023-06-26T02:41:23;19.70;1.00
15959;DHT22;8078;47.822;9.402;2023-06-26T02:43:49;19.50;1.00
15959;DHT22;8078;47.822;9.402;2023-06-26T02:46:14;19.50;1.00
15959;DHT22;8078;47.822;9.402;2023-06-26T02:48:40;19.30;1.00
15959;DHT22;8078;47.822;9.402;2023-06-26T02:51:07;19.30;1.00
15959;DHT22;8078;47.822;9.402;2023-06-26T02:53:32;19.30;1.00
15959;DHT22;8078;47.822;9.402;2023-06-26T02:55:58;19.50;1.00
15959;DHT22;8078;47.822;9.402;2023-06-26T02:58:23;19.50;1.00
15959;DHT22;8078;47.822;9.402;2023-06-26T03:00:49;19.40;1.00
15959;DHT22;8078;47.822;9.402;2023-06-26T03:03:14;19.40;1.00
15959;DHT22;8078;47.822;9.402;2023-06-26T03:05:40;19.60;1.00
15959;DHT22;8078;47.822;9.402;2023-06-26T03:08:05;19.50;1.00
15959;DHT22;8078;47.822;9.402;2023-06-26T03:10:31;19.70;1.00
15959;DHT22;8078;47.822;9.402;2023-06-26T03:12:57;19.70;1.00
15959;DHT22;8078;47.822;9.402;2023-06-26T03:15:22;19.70;1.00
15959;DHT22;8078;47.822;9.402;2023-06-26T03:17:48;19.80;1.00
15959;DHT22;8078;47.822;9.402;2023-06-26T03:20:13;19.90;1.00
15959;DHT22;8078;47.822;9.402;2023-06-26T03:22:40;20.00;1.00
15959;DHT22;8078;47.822;9.402;2023-06-26T03:25:06;20.10;1.00
15959;DHT22;8078;47.822;9.402;2023-06-26T03:27:32;20.00;1.00
15959;DHT22;8078;47.822;9.402;2023-06-26T03:29:57;20.00;1.00
15959;DHT22;8078;47.822;9.402;2023-06-26T03:32:23;20.00;1.00
15959;DHT22;8078;47.822;9.402;2023-06-26T03:34:48;20.00;1.00
15959;DHT22;8078;47.822;9.402;2023-06-26T03:37:14;19.90;1.00
15959;DHT22;8078;47.822;9.402;2023-06-26T03:39:40;19.80;1.00
15959;DHT22;8078;47.822;9.402;2023-06-26T03:42:06;19.80;1.00
15959;DHT22;8078;47.822;9.402;2023-06-26T03:44:32;19.90;1.00
15959;DHT22;8078;47.822;9.402;2023-06-26T03:46:57;19.90;1.00
15959;DHT22;8078;47.822;9.402;2023-06-26T03:49:23;19.70;1.00
15959;DHT22;8078;47.822;9.402;2023-06-26T03:51:49;19.70;1.00
15959;DHT22;8078;47.822;9.402;2023-06-26T03:54:14;19.60;1.00
15959;DHT22;8078;47.822;9.402;2023-06-26T03:56:40;19.60;1.00
15959;DHT22;8078;47.822;9.402;2023-06-26T03:59:05;19.70;1.00
15959;DHT22;8078;47.822;9.402;2023-06-26T04:01:31;19.60;1.00
15959;DHT22;8078;47.822;9.402;2023-06-26T04:03:56;19.60;1.00
15959;DHT22;8078;47.822;9.402;2023-06-26T04:06:22;19.60;1.00
15959;DHT22;8078;47.822;9.402;2023-06-26T04:08:47;19.50;1.00
15959;DHT22;8078;47.822;9.402;2023-06-26T04:11:13;19.50;1.00
15959;DHT22;8078;47.822;9.402;2023-06-26T04:13:39;19.50;1.00
15959;DHT22;8078;47.822;9.402;2023-06-26T04:16:04;19.50;1.00
15959;DHT22;8078;47.822;9.402;2023-06-26T04:18:31;19.50;1.00
15959;DHT22;8078;47.822;9.402;2023-06-26T04:21:05;19.60;1.00
15959;DHT22;8078;47.822;9.402;2023-06-26T04:23:34;19.50;1.00
15959;DHT22;8078;47.822;9.402;2023-06-26T04:26:00;19.60;1.00
15959;DHT22;8078;47.822;9.402;2023-06-26T04:28:26;19.60;1.00
15959;DHT22;8078;47.822;9.402;2023-06-26T04:30:51;19.60;1.00
15959;DHT22;8078;47.822;9.402;2023-06-26T04:33:19;19.70;1.00
15959;DHT22;8078;47.822;9.402;2023-06-26T04:35:44;19.80;1.00
15959;DHT22;8078;47.822;9.402;2023-06-26T04:38:10;19.70;1.00
15959;DHT22;8078;47.822;9.402;2023-06-26T04:40:36;19.70;1.00
15959;DHT22;8078;47.822;9.402;2023-06-26T04:43:02;19.70;1.00
15959;DHT22;8078;47.822;9.402;2023-06-26T04:45:27;19.70;1.00
15959;DHT22;8078;47.822;9.402;2023-06-26T04:47:53;19.80;1.00
15959;DHT22;8078;47.822;9.402;2023-06-26T04:50:18;19.80;1.00
15959;DHT22;8078;47.822;9.402;2023-06-26T04:52:44;19.80;1.00
15959;DHT22;8078;47.822;9.402;2023-06-26T04:55:10;19.80;1.00
15959;DHT22;8078;47.822;9.402;2023-06-26T04:57:35;19.80;1.00
15959;DHT22;8078;47.822;9.402;2023-06-26T05:00:02;19.80;1.00
15959;DHT22;8078;47.822;9.402;2023-06-26T05:02:27;19.90;1.00
15959;DHT22;8078;47.822;9.402;2023-06-26T05:04:54;19.90;1.00
15959;DHT22;8078;47.822;9.402;2023-06-26T05:07:19;19.90;1.00
15959;DHT22;8078;47.822;9.402;2023-06-26T05:09:45;20.00;1.00
15959;DHT22;8078;47.822;9.402;2023-06-26T05:12:11;20.00;1.00
15959;DHT22;8078;47.822;9.402;2023-06-26T05:14:38;20.00;1.00
15959;DHT22;8078;47.822;9.402;2023-06-26T05:17:03;20.00;1.00
15959;DHT22;8078;47.822;9.402;2023-06-26T05:19:29;20.20;1.00
15959;DHT22;8078;47.822;9.402;2023-06-26T05:21:55;20.10;1.00
15959;DHT22;8078;47.822;9.402;2023-06-26T05:24:21;20.20;1.00
15959;DHT22;8078;47.822;9.402;2023-06-26T05:26:48;20.20;1.00
15959;DHT22;8078;47.822;9.402;2023-06-26T05:29:14;20.30;1.00
15959;DHT22;8078;47.822;9.402;2023-06-26T05:31:41;20.40;1.00
15959;DHT22;8078;47.822;9.402;2023-06-26T05:34:07;20.40;1.00
15959;DHT22;8078;47.822;9.402;2023-06-26T05:36:34;20.40;1.00
15959;DHT22;8078;47.822;9.402;2023-06-26T05:39:01;20.30;1.00
15959;DHT22;8078;47.822;9.402;2023-06-26T05:41:27;20.20;1.00
15959;DHT22;8078;47.822;9.402;2023-06-26T05:43:53;20.10;1.00
15959;DHT22;8078;47.822;9.402;2023-06-26T05:46:19;20.20;1.00
15959;DHT22;8078;47.822;9.402;2023-06-26T05:48:45;20.30;1.00
15959;DHT22;8078;47.822;9.402;2023-06-26T05:51:11;20.40;1.00
15959;DHT22;8078;47.822;9.402;2023-06-26T05:53:36;20.40;1.00
15959;DHT22;8078;47.822;9.402;2023-06-26T05:56:02;20.50;1.00
15959;DHT22;8078;47.822;9.402;2023-06-26T05:58:28;20.40;1.00
15959;DHT22;8078;47.822;9.402;2023-06-26T06:00:55;20.50;1.00
15959;DHT22;8078;47.822;9.402;2023-06-26T06:03:21;20.60;1.00
15959;DHT22;8078;47.822;9.402;2023-06-26T06:05:46;20.60;1.00
15959;DHT22;8078;47.822;9.402;2023-06-26T06:08:12;20.70;1.00
15959;DHT22;8078;47.822;9.402;2023-06-26T06:10:37;20.80;1.00
15959;DHT22;8078;47.822;9.402;2023-06-26T06:13:03;20.80;1.00
15959;DHT22;8078;47.822;9.402;2023-06-26T06:15:29;20.80;1.00
15959;DHT22;8078;47.822;9.402;2023-06-26T06:17:54;21.00;1.00
15959;DHT22;8078;47.822;9.402;2023-06-26T06:20:20;21.00;1.00
15959;DHT22;8078;47.822;9.402;2023-06-26T06:22:45;20.90;1.00
15959;DHT22;8078;47.822;9.402;2023-06-26T06:25:11;21.00;1.00
15959;DHT22;8078;47.822;9.402;2023-06-26T06:27:37;21.10;1.00
15959;DHT22;8078;47.822;9.402;2023-06-26T06:30:03;21.20;1.00
15959;DHT22;8078;47.822;9.402;2023-06-26T06:32:28;21.00;1.00
15959;DHT22;8078;47.822;9.402;2023-06-26T06:34:54;21.30;1.00
15959;DHT22;8078;47.822;9.402;2023-06-26T06:37:19;21.20;1.00
15959;DHT22;8078;47.822;9.402;2023-06-26T06:39:45;21.10;1.00
15959;DHT22;8078;47.822;9.402;2023-06-26T06:42:10;21.10;1.00
15959;DHT22;8078;47.822;9.402;2023-06-26T06:44:36;21.10;1.00
15959;DHT22;8078;47.822;9.402;2023-06-26T06:47:02;21.20;1.00
15959;DHT22;8078;47.822;9.402;2023-06-26T06:49:27;21.30;1.00
15959;DHT22;8078;47.822;9.402;2023-06-26T06:51:53;21.30;1.00
15959;DHT22;8078;47.822;9.402;2023-06-26T06:54:18;21.60;1.00
15959;DHT22;8078;47.822;9.402;2023-06-26T06:56:45;21.50;1.00
15959;DHT22;8078;47.822;9.402;2023-06-26T06:59:10;21.50;1.00
15959;DHT22;8078;47.822;9.402;2023-06-26T07:01:36;21.80;1.00
15959;DHT22;8078;47.822;9.402;2023-06-26T07:04:01;22.10;1.00
15959;DHT22;8078;47.822;9.402;2023-06-26T07:06:29;22.10;1.00
15959;DHT22;8078;47.822;9.402;2023-06-26T07:08:55;22.00;1.00
15959;DHT22;8078;47.822;9.402;2023-06-26T07:11:20;21.80;1.00
15959;DHT22;8078;47.822;9.402;2023-06-26T07:13:46;21.90;1.00
15959;DHT22;8078;47.822;9.402;2023-06-26T07:16:11;21.90;1.00
15959;DHT22;8078;47.822;9.402;2023-06-26T07:18:38;21.80;1.00
15959;DHT22;8078;47.822;9.402;2023-06-26T07:21:04;21.90;1.00
15959;DHT22;8078;47.822;9.402;2023-06-26T07:23:29;22.00;1.00
15959;DHT22;8078;47.822;9.402;2023-06-26T07:25:55;21.80;1.00
15959;DHT22;8078;47.822;9.402;2023-06-26T07:28:21;22.00;1.00
15959;DHT22;8078;47.822;9.402;2023-06-26T07:30:46;22.10;1.00
15959;DHT22;8078;47.822;9.402;2023-06-26T07:33:12;22.20;1.00
15959;DHT22;8078;47.822;9.402;2023-06-26T07:35:38;22.30;1.00
15959;DHT22;8078;47.822;9.402;2023-06-26T07:38:03;22.60;1.00
15959;DHT22;8078;47.822;9.402;2023-06-26T07:40:29;22.30;1.00
15959;DHT22;8078;47.822;9.402;2023-06-26T07:42:55;22.30;1.00
15959;DHT22;8078;47.822;9.402;2023-06-26T07:45:20;22.40;1.00
15959;DHT22;8078;47.822;9.402;2023-06-26T07:47:46;22.50;1.00
15959;DHT22;8078;47.822;9.402;2023-06-26T07:50:11;22.60;1.00
15959;DHT22;8078;47.822;9.402;2023-06-26T07:52:37;22.70;1.00
15959;DHT22;8078;47.822;9.402;2023-06-26T07:55:03;22.60;1.00
15959;DHT22;8078;47.822;9.402;2023-06-26T07:57:29;22.80;1.00
15959;DHT22;8078;47.822;9.402;2023-06-26T07:59:55;22.60;1.00
15959;DHT22;8078;47.822;9.402;2023-06-26T08:02:21;22.50;1.00
15959;DHT22;8078;47.822;9.402;2023-06-26T08:04:46;22.60;1.00
15959;DHT22;8078;47.822;9.402;2023-06-26T08:07:12;22.80;1.00
15959;DHT22;8078;47.822;9.402;2023-06-26T08:09:39;22.40;1.00
15959;DHT22;8078;47.822;9.402;2023-06-26T08:12:05;22.50;1.00
15959;DHT22;8078;47.822;9.402;2023-06-26T08:14:30;22.50;1.00
15959;DHT22;8078;47.822;9.402;2023-06-26T08:16:57;22.30;1.00
15959;DHT22;8078;47.822;9.402;2023-06-26T08:19:24;22.20;1.00
15959;DHT22;8078;47.822;9.402;2023-06-26T08:21:50;22.50;1.00
15959;DHT22;8078;47.822;9.402;2023-06-26T08:24:16;22.20;1.00
15959;DHT22;8078;47.822;9.402;2023-06-26T08:26:45;22.30;1.00
15959;DHT22;8078;47.822;9.402;2023-06-26T08:29:11;22.60;1.00
15959;DHT22;8078;47.822;9.402;2023-06-26T08:31:40;22.80;1.00
15959;DHT22;8078;47.822;9.402;2023-06-26T08:34:06;23.10;1.00
15959;DHT22;8078;47.822;9.402;2023-06-26T08:36:31;23.40;1.00
15959;DHT22;8078;47.822;9.402;2023-06-26T08:38:57;23.70;1.00
15959;DHT22;8078;47.822;9.402;2023-06-26T08:41:25;23.10;1.00
15959;DHT22;8078;47.822;9.402;2023-06-26T08:43:50;23.20;1.00
15959;DHT22;8078;47.822;9.402;2023-06-26T08:46:19;23.20;1.00
15959;DHT22;8078;47.822;9.402;2023-06-26T08:49:08;22.90;1.00
15959;DHT22;8078;47.822;9.402;2023-06-26T08:51:39;23.20;1.00
15959;DHT22;8078;47.822;9.402;2023-06-26T08:54:09;23.10;1.00
15959;DHT22;8078;47.822;9.402;2023-06-26T08:56:41;22.90;1.00
15959;DHT22;8078;47.822;9.402;2023-06-26T08:59:08;23.10;1.00
15959;DHT22;8078;47.822;9.402;2023-06-26T09:01:36;23.00;1.00
15959;DHT22;8078;47.822;9.402;2023-06-26T09:04:02;23.10;1.00
15959;DHT22;8078;47.822;9.402;2023-06-26T09:06:28;23.20;1.00
15959;DHT22;8078;47.822;9.402;2023-06-26T09:08:53;23.50;1.00
15959;DHT22;8078;47.822;9.402;2023-06-26T09:11:19;23.60;1.00
15959;DHT22;8078;47.822;9.402;2023-06-26T09:13:45;23.70;1.00
15959;DHT22;8078;47.822;9.402;2023-06-26T09:16:12;23.70;1.00
15959;DHT22;8078;47.822;9.402;2023-06-26T09:18:40;23.90;1.00
15959;DHT22;8078;47.822;9.402;2023-06-26T09:21:07;24.00;1.00
15959;DHT22;8078;47.822;9.402;2023-06-26T09:23:34;23.70;1.00
15959;DHT22;8078;47.822;9.402;2023-06-26T09:26:05;23.70;1.00
15959;DHT22;8078;47.822;9.402;2023-06-26T09:28:32;23.40;1.00
15959;DHT22;8078;47.822;9.402;2023-06-26T09:31:07;23.30;1.00
15959;DHT22;8078;47.822;9.402;2023-06-26T09:33:37;23.60;1.00
15959;DHT22;8078;47.822;9.402;2023-06-26T09:36:19;23.50;1.00
15959;DHT22;8078;47.822;9.402;2023-06-26T09:38:45;23.70;1.00
15959;DHT22;8078;47.822;9.402;2023-06-26T09:41:11;23.70;1.00
15959;DHT22;8078;47.822;9.402;2023-06-26T09:43:49;23.60;1.00
15959;DHT22;8078;47.822;9.402;2023-06-26T09:46:25;23.70;1.00
15959;DHT22;8078;47.822;9.402;2023-06-26T09:49:02;24.30;1.00
15959;DHT22;8078;47.822;9.402;2023-06-26T09:51:30;24.20;1.00
15959;DHT22;8078;47.822;9.402;2023-06-26T09:53:56;24.40;1.00
15959;DHT22;8078;47.822;9.402;2023-06-26T09:56:22;25.00;1.00
15959;DHT22;8078;47.822;9.402;2023-06-26T09:58:49;24.40;1.00
15959;DHT22;8078;47.822;9.402;2023-06-26T10:01:15;24.20;1.00
15959;DHT22;8078;47.822;9.402;2023-06-26T10:03:40;24.40;1.00
15959;DHT22;8078;47.822;9.402;2023-06-26T10:06:07;24.20;1.00
15959;DHT22;8078;47.822;9.402;2023-06-26T10:08:34;24.30;1.00
15959;DHT22;8078;47.822;9.402;2023-06-26T10:11:05;24.60;1.00
15959;DHT22;8078;47.822;9.402;2023-06-26T10:13:35;24.50;1.00
15959;DHT22;8078;47.822;9.402;2023-06-26T10:16:04;24.70;1.00
15959;DHT22;8078;47.822;9.402;2023-06-26T10:18:32;24.80;1.00
15959;DHT22;8078;47.822;9.402;2023-06-26T10:21:00;24.70;1.00
15959;DHT22;8078;47.822;9.402;2023-06-26T10:23:27;24.50;1.00
15959;DHT22;8078;47.822;9.402;2023-06-26T10:25:55;24.50;1.00
15959;DHT22;8078;47.822;9.402;2023-06-26T10:28:23;25.00;1.00
15959;DHT22;8078;47.822;9.402;2023-06-26T10:30:50;24.80;1.00
15959;DHT22;8078;47.822;9.402;2023-06-26T10:33:16;24.90;1.00
15959;DHT22;8078;47.822;9.402;2023-06-26T10:35:45;24.80;1.00
15959;DHT22;8078;47.822;9.402;2023-06-26T10:38:11;25.10;1.00
15959;DHT22;8078;47.822;9.402;2023-06-26T10:40:55;25.00;1.00
15959;DHT22;8078;47.822;9.402;2023-06-26T10:43:20;25.10;1.00
15959;DHT22;8078;47.822;9.402;2023-06-26T10:45:56;25.00;1.00
15959;DHT22;8078;47.822;9.402;2023-06-26T10:48:22;25.20;1.00
15959;DHT22;8078;47.822;9.402;2023-06-26T10:50:48;25.50;1.00
15959;DHT22;8078;47.822;9.402;2023-06-26T10:55:58;25.90;1.00
15959;DHT22;8078;47.822;9.402;2023-06-26T11:03:40;26.40;1.00
15959;DHT22;8078;47.822;9.402;2023-06-26T11:06:14;26.70;1.00
15959;DHT22;8078;47.822;9.402;2023-06-26T11:09:08;26.60;1.00
15959;DHT22;8078;47.822;9.402;2023-06-26T11:14:22;26.20;1.00
15959;DHT22;8078;47.822;9.402;2023-06-26T11:16:48;26.20;1.00
15959;DHT22;8078;47.822;9.402;2023-06-26T11:19:18;26.50;1.00
15959;DHT22;8078;47.822;9.402;2023-06-26T11:21:44;25.80;1.00
15959;DHT22;8078;47.822;9.402;2023-06-26T11:24:11;25.70;1.00
15959;DHT22;8078;47.822;9.402;2023-06-26T11:26:38;26.10;1.00
15959;DHT22;8078;47.822;9.402;2023-06-26T11:29:04;26.40;1.00
15959;DHT22;8078;47.822;9.402;2023-06-26T11:31:31;26.40;1.00
15959;DHT22;8078;47.822;9.402;2023-06-26T11:34:03;26.50;1.00
15959;DHT22;8078;47.822;9.402;2023-06-26T11:36:30;26.30;1.00
15959;DHT22;8078;47.822;9.402;2023-06-26T11:39:00;26.60;1.00
15959;DHT22;8078;47.822;9.402;2023-06-26T11:41:27;26.80;1.00
15959;DHT22;8078;47.822;9.402;2023-06-26T11:43:54;27.20;1.00
15959;DHT22;8078;47.822;9.402;2023-06-26T11:46:21;26.80;1.00
15959;DHT22;8078;47.822;9.402;2023-06-26T11:48:48;26.50;1.00
15959;DHT22;8078;47.822;9.402;2023-06-26T11:51:17;26.90;1.00
15959;DHT22;8078;47.822;9.402;2023-06-26T11:53:44;26.10;1.00
15959;DHT22;8078;47.822;9.402;2023-06-26T11:56:17;25.80;1.00
15959;DHT22;8078;47.822;9.402;2023-06-26T11:59:13;26.80;1.00
15959;DHT22;8078;47.822;9.402;2023-06-26T12:01:42;27.50;1.00
15959;DHT22;8078;47.822;9.402;2023-06-26T12:04:11;27.20;1.00
15959;DHT22;8078;47.822;9.402;2023-06-26T12:06:39;27.10;1.00
15959;DHT22;8078;47.822;9.402;2023-06-26T12:09:10;26.80;1.00
15959;DHT22;8078;47.822;9.402;2023-06-26T12:11:44;26.60;1.00
15959;DHT22;8078;47.822;9.402;2023-06-26T12:14:11;26.50;1.00
15959;DHT22;8078;47.822;9.402;2023-06-26T12:16:36;26.60;1.00
15959;DHT22;8078;47.822;9.402;2023-06-26T12:19:05;26.20;1.00
15959;DHT22;8078;47.822;9.402;2023-06-26T12:24:04;26.80;1.00
15959;DHT22;8078;47.822;9.402;2023-06-26T12:26:31;27.00;1.00
15959;DHT22;8078;47.822;9.402;2023-06-26T12:29:10;27.20;1.00
15959;DHT22;8078;47.822;9.402;2023-06-26T12:31:42;26.90;1.00
15959;DHT22;8078;47.822;9.402;2023-06-26T12:34:17;26.60;1.00
15959;DHT22;8078;47.822;9.402;2023-06-26T12:36:48;26.30;1.00
15959;DHT22;8078;47.822;9.402;2023-06-26T12:39:20;26.20;1.00
15959;DHT22;8078;47.822;9.402;2023-06-26T12:41:53;26.10;1.00
15959;DHT22;8078;47.822;9.402;2023-06-26T12:44:26;25.90;1.00
15959;DHT22;8078;47.822;9.402;2023-06-26T12:46:57;26.50;1.00
15959;DHT22;8078;47.822;9.402;2023-06-26T12:49:34;26.40;1.00
15959;DHT22;8078;47.822;9.402;2023-06-26T12:52:00;26.60;1.00
15959;DHT22;8078;47.822;9.402;2023-06-26T12:54:27;26.90;1.00
15959;DHT22;8078;47.822;9.402;2023-06-26T12:56:53;27.00;1.00
15959;DHT22;8078;47.822;9.402;2023-06-26T12:59:19;27.00;1.00
15959;DHT22;8078;47.822;9.402;2023-06-26T13:01:44;26.90;1.00
15959;DHT22;8078;47.822;9.402;2023-06-26T13:04:10;27.10;1.00
15959;DHT22;8078;47.822;9.402;2023-06-26T13:06:36;27.20;1.00
15959;DHT22;8078;47.822;9.402;2023-06-26T13:09:02;27.40;1.00
15959;DHT22;8078;47.822;9.402;2023-06-26T13:11:31;26.30;1.00
15959;DHT22;8078;47.822;9.402;2023-06-26T13:13:57;26.00;1.00
15959;DHT22;8078;47.822;9.402;2023-06-26T13:16:22;25.80;1.00
15959;DHT22;8078;47.822;9.402;2023-06-26T13:18:48;26.00;1.00
15959;DHT22;8078;47.822;9.402;2023-06-26T13:21:14;25.80;1.00
15959;DHT22;8078;47.822;9.402;2023-06-26T13:23:40;25.30;1.00
15959;DHT22;8078;47.822;9.402;2023-06-26T13:26:06;25.00;1.00
15959;DHT22;8078;47.822;9.402;2023-06-26T13:28:32;25.20;1.00
15959;DHT22;8078;47.822;9.402;2023-06-26T13:30:58;24.20;1.00
15959;DHT22;8078;47.822;9.402;2023-06-26T13:33:23;23.40;1.00
15959;DHT22;8078;47.822;9.402;2023-06-26T13:35:51;22.60;1.00
15959;DHT22;8078;47.822;9.402;2023-06-26T13:38:19;22.30;1.00
15959;DHT22;8078;47.822;9.402;2023-06-26T13:40:45;22.30;1.00
15959;DHT22;8078;47.822;9.402;2023-06-26T13:43:10;22.30;1.00
15959;DHT22;8078;47.822;9.402;2023-06-26T13:45:36;22.50;1.00
15959;DHT22;8078;47.822;9.402;2023-06-26T13:48:02;23.00;1.00
15959;DHT22;8078;47.822;9.402;2023-06-26T13:50:29;23.40;1.00
15959;DHT22;8078;47.822;9.402;2023-06-26T13:52:54;23.70;1.00
15959;DHT22;8078;47.822;9.402;2023-06-26T13:55:20;24.10;1.00
15959;DHT22;8078;47.822;9.402;2023-06-26T13:57:48;24.50;1.00
15959;DHT22;8078;47.822;9.402;2023-06-26T14:00:15;25.00;1.00
15959;DHT22;8078;47.822;9.402;2023-06-26T14:02:45;26.10;1.00
15959;DHT22;8078;47.822;9.402;2023-06-26T14:05:11;27.20;1.00
15959;DHT22;8078;47.822;9.402;2023-06-26T14:07:36;28.60;1.00
15959;DHT22;8078;47.822;9.402;2023-06-26T14:10:03;28.80;1.00
15959;DHT22;8078;47.822;9.402;2023-06-26T14:12:30;29.40;1.00
15959;DHT22;8078;47.822;9.402;2023-06-26T14:14:56;27.80;1.00
15959;DHT22;8078;47.822;9.402;2023-06-26T14:17:21;26.60;1.00
15959;DHT22;8078;47.822;9.402;2023-06-26T14:19:49;26.80;1.00
15959;DHT22;8078;47.822;9.402;2023-06-26T14:22:15;27.00;1.00
15959;DHT22;8078;47.822;9.402;2023-06-26T14:24:40;26.60;1.00
15959;DHT22;8078;47.822;9.402;2023-06-26T14:27:06;26.40;1.00
15959;DHT22;8078;47.822;9.402;2023-06-26T14:29:32;26.60;1.00
15959;DHT22;8078;47.822;9.402;2023-06-26T14:31:57;26.10;1.00
15959;DHT22;8078;47.822;9.402;2023-06-26T14:34:23;25.50;1.00
15959;DHT22;8078;47.822;9.402;2023-06-26T14:36:49;25.10;1.00
15959;DHT22;8078;47.822;9.402;2023-06-26T14:39:14;25.00;1.00
15959;DHT22;8078;47.822;9.402;2023-06-26T14:41:40;25.10;1.00
15959;DHT22;8078;47.822;9.402;2023-06-26T14:44:05;25.10;1.00
15959;DHT22;8078;47.822;9.402;2023-06-26T14:46:33;25.60;1.00
15959;DHT22;8078;47.822;9.402;2023-06-26T14:48:59;25.90;1.00
15959;DHT22;8078;47.822;9.402;2023-06-26T14:51:24;26.10;1.00
15959;DHT22;8078;47.822;9.402;2023-06-26T14:53:51;26.50;1.00
15959;DHT22;8078;47.822;9.402;2023-06-26T14:56:17;26.70;1.00
15959;DHT22;8078;47.822;9.402;2023-06-26T14:58:42;26.50;1.00
15959;DHT22;8078;47.822;9.402;2023-06-26T15:01:08;26.50;1.00
15959;DHT22;8078;47.822;9.402;2023-06-26T15:03:34;26.40;1.00
15959;DHT22;8078;47.822;9.402;2023-06-26T15:06:00;26.40;1.00
15959;DHT22;8078;47.822;9.402;2023-06-26T15:08:25;26.10;1.00
15959;DHT22;8078;47.822;9.402;2023-06-26T15:10:51;26.20;1.00
15959;DHT22;8078;47.822;9.402;2023-06-26T15:13:16;26.30;1.00
15959;DHT22;8078;47.822;9.402;2023-06-26T15:15:42;26.40;1.00
15959;DHT22;8078;47.822;9.402;2023-06-26T15:18:07;26.60;1.00
15959;DHT22;8078;47.822;9.402;2023-06-26T15:20:33;26.60;1.00
15959;DHT22;8078;47.822;9.402;2023-06-26T15:22:58;26.50;1.00
15959;DHT22;8078;47.822;9.402;2023-06-26T15:25:24;26.60;1.00
15959;DHT22;8078;47.822;9.402;2023-06-26T15:27:50;26.90;1.00
15959;DHT22;8078;47.822;9.402;2023-06-26T15:30:16;26.70;1.00
15959;DHT22;8078;47.822;9.402;2023-06-26T15:32:41;27.10;1.00
15959;DHT22;8078;47.822;9.402;2023-06-26T15:35:07;26.60;1.00
15959;DHT22;8078;47.822;9.402;2023-06-26T15:37:33;26.10;1.00
15959;DHT22;8078;47.822;9.402;2023-06-26T15:39:58;26.40;1.00
15959;DHT22;8078;47.822;9.402;2023-06-26T15:42:27;26.30;1.00
15959;DHT22;8078;47.822;9.402;2023-06-26T15:44:54;26.50;1.00
15959;DHT22;8078;47.822;9.402;2023-06-26T15:47:19;26.30;1.00
15959;DHT22;8078;47.822;9.402;2023-06-26T15:49:45;26.30;1.00
15959;DHT22;8078;47.822;9.402;2023-06-26T15:52:10;26.20;1.00
15959;DHT22;8078;47.822;9.402;2023-06-26T15:54:36;26.90;1.00
15959;DHT22;8078;47.822;9.402;2023-06-26T15:57:03;26.40;1.00
15959;DHT22;8078;47.822;9.402;2023-06-26T15:59:28;26.40;1.00
15959;DHT22;8078;47.822;9.402;2023-06-26T16:01:54;26.60;1.00
15959;DHT22;8078;47.822;9.402;2023-06-26T16:04:21;26.20;1.00
15959;DHT22;8078;47.822;9.402;2023-06-26T16:06:49;26.20;1.00
15959;DHT22;8078;47.822;9.402;2023-06-26T16:09:14;26.30;1.00
15959;DHT22;8078;47.822;9.402;2023-06-26T16:11:40;26.20;1.00
15959;DHT22;8078;47.822;9.402;2023-06-26T16:14:06;26.50;1.00
15959;DHT22;8078;47.822;9.402;2023-06-26T16:16:31;26.50;1.00
15959;DHT22;8078;47.822;9.402;2023-06-26T16:18:57;27.00;1.00
15959;DHT22;8078;47.822;9.402;2023-06-26T16:21:22;27.00;1.00
15959;DHT22;8078;47.822;9.402;2023-06-26T16:23:48;27.00;1.00